sensor_id;sensor_type;location;lat;lon;timestamp;temperature;humidity
573;DHT22;271;51.114;13.780;2023-10-31T00:01:45;13.80;46.90
573;DHT22;271;51.114;13.780;2023-10-31T00:12:00;13.80;49.40
573;DHT22;271;51.114;13.780;2023-10-31T00:14:48;13.80;49.30
573;DHT22;271;51.114;13.780;2023-10-31T00:17:35;13.80;46.40
573;DHT22;271;51.114;13.780;2023-10-31T00:20:23;13.80;49.70
573;DHT22;271;51.114;13.780;2023-10-31T00:23:11;13.70;50.40
573;DHT22;271;51.114;13.780;2023-10-31T00:25:58;13.70;53.80
573;DHT22;271;51.114;13.780;2023-10-31T00:28:47;13.70;56.10
573;DHT22;271;51.114;13.780;2023-10-31T00:39:09;13.60;59.20
573;DHT22;271;51.114;13.780;2023-10-31T00:42:45;13.60;59.70
573;DHT22;271;51.114;13.780;2023-10-31T00:45:41;13.60;61.20
573;DHT22;271;51.114;13.780;2023-10-31T00:53:10;13.60;63.50
573;DHT22;271;51.114;13.780;2023-10-31T00:57:03;13.60;65.60
573;DHT22;271;51.114;13.780;2023-10-31T01:19:48;13.60;63.60
573;DHT22;271;51.114;13.780;2023-10-31T01:22:53;13.50;65.00
573;DHT22;271;51.114;13.780;2023-10-31T01:25:54;13.60;66.80
573;DHT22;271;51.114;13.780;2023-10-31T01:28:55;13.60;67.20
573;DHT22;271;51.114;13.780;2023-10-31T01:31:44;13.70;66.20
573;DHT22;271;51.114;13.780;2023-10-31T01:34:32;13.60;63.30
573;DHT22;271;51.114;13.780;2023-10-31T01:37:21;13.60;64.60
573;DHT22;271;51.114;13.780;2023-10-31T01:40:12;13.60;67.50
573;DHT22;271;51.114;13.780;2023-10-31T01:43:00;13.60;68.50
573;DHT22;271;51.114;13.780;2023-10-31T01:45:48;13.60;67.80
573;DHT22;271;51.114;13.780;2023-10-31T01:48:40;13.60;69.60
573;DHT22;271;51.114;13.780;2023-10-31T01:51:28;13.60;69.10
573;DHT22;271;51.114;13.780;2023-10-31T01:54:17;13.60;68.50
573;DHT22;271;51.114;13.780;2023-10-31T01:57:05;13.60;67.80
573;DHT22;271;51.114;13.780;2023-10-31T01:59:53;13.60;67.70
573;DHT22;271;51.114;13.780;2023-10-31T02:02:41;13.60;67.90
573;DHT22;271;51.114;13.780;2023-10-31T02:05:35;13.60;67.40
573;DHT22;271;51.114;13.780;2023-10-31T02:08:25;13.50;67.90
573;DHT22;271;51.114;13.780;2023-10-31T02:11:14;13.60;68.90
573;DHT22;271;51.114;13.780;2023-10-31T02:14:02;13.60;69.10
573;DHT22;271;51.114;13.780;2023-10-31T02:16:50;13.50;68.10
573;DHT22;271;51.114;13.780;2023-10-31T02:19:37;13.50;69.00
573;DHT22;271;51.114;13.780;2023-10-31T02:22:26;13.50;71.40
573;DHT22;271;51.114;13.780;2023-10-31T02:25:27;13.50;72.30
573;DHT22;271;51.114;13.780;2023-10-31T02:28:15;13.40;72.40
573;DHT22;271;51.114;13.780;2023-10-31T02:31:03;13.40;74.60
573;DHT22;271;51.114;13.780;2023-10-31T02:33:51;13.40;74.00
573;DHT22;271;51.114;13.780;2023-10-31T02:36:39;13.30;74.60
573;DHT22;271;51.114;13.780;2023-10-31T02:39:28;13.40;75.70
573;DHT22;271;51.114;13.780;2023-10-31T02:42:15;13.40;72.70
573;DHT22;271;51.114;13.780;2023-10-31T02:45:04;13.40;74.60
573;DHT22;271;51.114;13.780;2023-10-31T02:47:51;13.30;73.10
573;DHT22;271;51.114;13.780;2023-10-31T02:50:39;13.30;72.20
573;DHT22;271;51.114;13.780;2023-10-31T02:53:27;13.20;72.40
573;DHT22;271;51.114;13.780;2023-10-31T02:56:16;13.20;71.80
573;DHT22;271;51.114;13.780;2023-10-31T02:59:04;13.20;71.30
573;DHT22;271;51.114;13.780;2023-10-31T03:01:52;13.20;71.40
573;DHT22;271;51.114;13.780;2023-10-31T03:04:40;13.10;72.20
573;DHT22;271;51.114;13.780;2023-10-31T03:07:28;13.10;72.10
573;DHT22;271;51.114;13.780;2023-10-31T03:10:15;13.10;71.60
573;DHT22;271;51.114;13.780;2023-10-31T03:13:04;13.10;71.60
573;DHT22;271;51.114;13.780;2023-10-31T03:15:52;13.00;71.30
573;DHT22;271;51.114;13.780;2023-10-31T03:18:40;13.00;72.40
573;DHT22;271;51.114;13.780;2023-10-31T03:21:27;13.00;72.50
573;DHT22;271;51.114;13.780;2023-10-31T03:24:15;13.00;74.10
573;DHT22;271;51.114;13.780;2023-10-31T03:27:03;13.00;74.60
573;DHT22;271;51.114;13.780;2023-10-31T03:29:52;13.00;73.70
573;DHT22;271;51.114;13.780;2023-10-31T03:32:40;12.90;73.20
573;DHT22;271;51.114;13.780;2023-10-31T03:35:27;12.90;74.00
573;DHT22;271;51.114;13.780;2023-10-31T03:38:15;12.90;74.80
573;DHT22;271;51.114;13.780;2023-10-31T03:41:03;12.90;76.70
573;DHT22;271;51.114;13.780;2023-10-31T03:43:51;12.90;76.10
573;DHT22;271;51.114;13.780;2023-10-31T03:46:40;12.90;76.00
573;DHT22;271;51.114;13.780;2023-10-31T03:49:27;12.90;76.60
573;DHT22;271;51.114;13.780;2023-10-31T03:52:15;13.00;77.90
573;DHT22;271;51.114;13.780;2023-10-31T03:55:03;12.90;75.80
573;DHT22;271;51.114;13.780;2023-10-31T03:57:51;12.90;74.90
573;DHT22;271;51.114;13.780;2023-10-31T04:00:39;12.90;72.40
573;DHT22;271;51.114;13.780;2023-10-31T04:03:28;12.80;72.00
573;DHT22;271;51.114;13.780;2023-10-31T04:06:16;12.80;73.80
573;DHT22;271;51.114;13.780;2023-10-31T04:09:04;12.80;75.10
573;DHT22;271;51.114;13.780;2023-10-31T04:11:52;12.80;76.60
573;DHT22;271;51.114;13.780;2023-10-31T04:14:39;12.80;76.60
573;DHT22;271;51.114;13.780;2023-10-31T04:17:27;12.80;75.30
573;DHT22;271;51.114;13.780;2023-10-31T04:20:16;12.80;73.90
573;DHT22;271;51.114;13.780;2023-10-31T04:23:04;12.80;74.40
573;DHT22;271;51.114;13.780;2023-10-31T04:25:52;12.70;72.90
573;DHT22;271;51.114;13.780;2023-10-31T04:28:39;12.70;73.10
573;DHT22;271;51.114;13.780;2023-10-31T04:31:27;12.70;73.40
573;DHT22;271;51.114;13.780;2023-10-31T04:34:15;12.70;73.50
573;DHT22;271;51.114;13.780;2023-10-31T04:37:04;12.70;73.10
573;DHT22;271;51.114;13.780;2023-10-31T04:39:52;12.70;72.20
573;DHT22;271;51.114;13.780;2023-10-31T04:42:40;12.70;72.00
573;DHT22;271;51.114;13.780;2023-10-31T04:45:28;12.70;71.90
573;DHT22;271;51.114;13.780;2023-10-31T04:48:16;12.60;70.90
573;DHT22;271;51.114;13.780;2023-10-31T04:51:05;12.70;71.60
573;DHT22;271;51.114;13.780;2023-10-31T04:53:54;12.60;73.40
573;DHT22;271;51.114;13.780;2023-10-31T04:56:41;12.60;70.80
573;DHT22;271;51.114;13.780;2023-10-31T04:59:29;12.50;70.60
573;DHT22;271;51.114;13.780;2023-10-31T05:02:17;12.60;71.60
573;DHT22;271;51.114;13.780;2023-10-31T05:05:05;12.50;71.70
573;DHT22;271;51.114;13.780;2023-10-31T05:07:53;12.50;72.20
573;DHT22;271;51.114;13.780;2023-10-31T05:10:42;12.60;70.30
573;DHT22;271;51.114;13.780;2023-10-31T05:13:29;12.50;70.30
573;DHT22;271;51.114;13.780;2023-10-31T05:16:17;12.50;71.60
573;DHT22;271;51.114;13.780;2023-10-31T05:19:05;12.50;71.80
573;DHT22;271;51.114;13.780;2023-10-31T05:21:52;12.50;72.20
573;DHT22;271;51.114;13.780;2023-10-31T05:24:40;12.50;71.40
573;DHT22;271;51.114;13.780;2023-10-31T05:27:29;12.50;73.70
573;DHT22;271;51.114;13.780;2023-10-31T05:30:17;12.50;72.60
573;DHT22;271;51.114;13.780;2023-10-31T05:33:05;12.50;72.50
573;DHT22;271;51.114;13.780;2023-10-31T05:35:52;12.50;73.20
573;DHT22;271;51.114;13.780;2023-10-31T05:38:40;12.50;71.60
573;DHT22;271;51.114;13.780;2023-10-31T05:41:28;12.50;71.90
573;DHT22;271;51.114;13.780;2023-10-31T05:44:17;12.60;71.60
573;DHT22;271;51.114;13.780;2023-10-31T05:47:04;12.50;67.60
573;DHT22;271;51.114;13.780;2023-10-31T05:49:52;12.50;66.50
573;DHT22;271;51.114;13.780;2023-10-31T05:52:40;12.50;67.40
573;DHT22;271;51.114;13.780;2023-10-31T05:55:27;12.40;63.10
573;DHT22;271;51.114;13.780;2023-10-31T05:58:15;12.50;63.20
573;DHT22;271;51.114;13.780;2023-10-31T06:01:05;12.50;64.60
573;DHT22;271;51.114;13.780;2023-10-31T06:03:52;12.50;65.70
573;DHT22;271;51.114;13.780;2023-10-31T06:06:40;12.50;67.30
573;DHT22;271;51.114;13.780;2023-10-31T06:09:28;12.50;65.20
573;DHT22;271;51.114;13.780;2023-10-31T06:12:15;12.50;62.80
573;DHT22;271;51.114;13.780;2023-10-31T06:15:03;12.50;64.10
573;DHT22;271;51.114;13.780;2023-10-31T06:17:53;12.50;65.50
573;DHT22;271;51.114;13.780;2023-10-31T06:20:40;12.50;64.90
573;DHT22;271;51.114;13.780;2023-10-31T06:23:28;12.50;64.50
573;DHT22;271;51.114;13.780;2023-10-31T06:26:16;12.60;65.80
573;DHT22;271;51.114;13.780;2023-10-31T06:29:03;12.60;64.70
573;DHT22;271;51.114;13.780;2023-10-31T06:31:51;12.50;62.20
573;DHT22;271;51.114;13.780;2023-10-31T06:34:40;12.50;59.90
573;DHT22;271;51.114;13.780;2023-10-31T06:37:28;12.40;57.50
573;DHT22;271;51.114;13.780;2023-10-31T06:40:16;12.40;57.40
573;DHT22;271;51.114;13.780;2023-10-31T06:44:56;12.40;56.50
573;DHT22;271;51.114;13.780;2023-10-31T06:47:32;12.50;57.00
573;DHT22;271;51.114;13.780;2023-10-31T06:54:51;12.40;52.10
573;DHT22;271;51.114;13.780;2023-10-31T06:57:56;12.40;51.50
573;DHT22;271;51.114;13.780;2023-10-31T07:00:44;12.30;48.40
573;DHT22;271;51.114;13.780;2023-10-31T07:03:31;12.30;47.30
573;DHT22;271;51.114;13.780;2023-10-31T07:07:21;12.30;48.00
573;DHT22;271;51.114;13.780;2023-10-31T07:18:02;12.30;47.80
573;DHT22;271;51.114;13.780;2023-10-31T07:21:21;12.30;47.40
573;DHT22;271;51.114;13.780;2023-10-31T07:24:47;12.20;37.60
573;DHT22;271;51.114;13.780;2023-10-31T07:27:52;12.30;35.40
573;DHT22;271;51.114;13.780;2023-10-31T07:30:40;12.20;30.80
573;DHT22;271;51.114;13.780;2023-10-31T07:33:29;12.20;22.80
573;DHT22;271;51.114;13.780;2023-10-31T07:36:17;12.20;22.70
573;DHT22;271;51.114;13.780;2023-10-31T07:39:04;12.20;20.80
573;DHT22;271;51.114;13.780;2023-10-31T07:46:01;12.20;19.00
573;DHT22;271;51.114;13.780;2023-10-31T07:48:52;12.30;22.20
573;DHT22;271;51.114;13.780;2023-10-31T07:51:40;12.30;18.50
573;DHT22;271;51.114;13.780;2023-10-31T07:54:28;12.40;19.50
573;DHT22;271;51.114;13.780;2023-10-31T07:57:16;12.40;18.00
573;DHT22;271;51.114;13.780;2023-10-31T08:00:08;12.40;15.30
573;DHT22;271;51.114;13.780;2023-10-31T08:02:57;12.40;12.70
573;DHT22;271;51.114;13.780;2023-10-31T08:05:46;12.40;12.40
573;DHT22;271;51.114;13.780;2023-10-31T08:08:34;12.40;8.90
573;DHT22;271;51.114;13.780;2023-10-31T08:11:23;12.50;1.40
573;DHT22;271;51.114;13.780;2023-10-31T08:14:10;12.40;1.00
573;DHT22;271;51.114;13.780;2023-10-31T08:16:58;12.40;1.00
573;DHT22;271;51.114;13.780;2023-10-31T08:19:46;12.40;1.00
573;DHT22;271;51.114;13.780;2023-10-31T08:22:35;12.40;1.00
573;DHT22;271;51.114;13.780;2023-10-31T08:25:23;12.40;1.00
573;DHT22;271;51.114;13.780;2023-10-31T08:28:13;12.30;1.00
573;DHT22;271;51.114;13.780;2023-10-31T08:31:06;12.30;1.00
573;DHT22;271;51.114;13.780;2023-10-31T08:33:56;12.40;1.00
573;DHT22;271;51.114;13.780;2023-10-31T08:36:43;12.40;1.00
573;DHT22;271;51.114;13.780;2023-10-31T08:39:35;12.40;1.00
573;DHT22;271;51.114;13.780;2023-10-31T08:42:34;12.50;1.00
573;DHT22;271;51.114;13.780;2023-10-31T08:45:22;12.60;1.00
573;DHT22;271;51.114;13.780;2023-10-31T08:48:17;12.70;1.00
573;DHT22;271;51.114;13.780;2023-10-31T08:51:04;12.90;1.00
573;DHT22;271;51.114;13.780;2023-10-31T08:53:52;13.00;1.00
573;DHT22;271;51.114;13.780;2023-10-31T08:56:41;13.10;1.00
573;DHT22;271;51.114;13.780;2023-10-31T08:59:29;13.40;1.00
573;DHT22;271;51.114;13.780;2023-10-31T09:02:17;13.60;1.00
573;DHT22;271;51.114;13.780;2023-10-31T09:05:05;13.60;1.00
573;DHT22;271;51.114;13.780;2023-10-31T09:07:53;14.10;1.00
573;DHT22;271;51.114;13.780;2023-10-31T09:10:40;14.20;1.00
573;DHT22;271;51.114;13.780;2023-10-31T09:13:30;14.30;1.00
573;DHT22;271;51.114;13.780;2023-10-31T09:16:18;14.60;1.00
573;DHT22;271;51.114;13.780;2023-10-31T09:19:06;14.90;1.00
573;DHT22;271;51.114;13.780;2023-10-31T09:22:11;15.20;1.00
573;DHT22;271;51.114;13.780;2023-10-31T09:34:55;15.10;1.00
573;DHT22;271;51.114;13.780;2023-10-31T09:37:43;15.30;1.00
573;DHT22;271;51.114;13.780;2023-10-31T09:40:36;15.40;1.00
573;DHT22;271;51.114;13.780;2023-10-31T09:43:24;15.50;1.00
573;DHT22;271;51.114;13.780;2023-10-31T09:46:12;15.50;1.00
573;DHT22;271;51.114;13.780;2023-10-31T09:49:00;15.30;1.00
573;DHT22;271;51.114;13.780;2023-10-31T11:30:29;13.90;1.00
573;DHT22;271;51.114;13.780;2023-10-31T11:33:29;13.90;1.00
573;DHT22;271;51.114;13.780;2023-10-31T11:36:33;13.90;1.00
573;DHT22;271;51.114;13.780;2023-10-31T11:39:24;13.90;1.00
573;DHT22;271;51.114;13.780;2023-10-31T11:42:50;14.00;1.00
573;DHT22;271;51.114;13.780;2023-10-31T11:45:53;14.00;1.00
573;DHT22;271;51.114;13.780;2023-10-31T11:48:48;13.90;1.00
573;DHT22;271;51.114;13.780;2023-10-31T11:51:37;13.80;1.00
573;DHT22;271;51.114;13.780;2023-10-31T11:54:27;13.80;1.00
573;DHT22;271;51.114;13.780;2023-10-31T11:57:26;13.80;1.00
573;DHT22;271;51.114;13.780;2023-10-31T12:00:22;13.70;1.00
573;DHT22;271;51.114;13.780;2023-10-31T12:03:12;13.70;1.00
573;DHT22;271;51.114;13.780;2023-10-31T12:06:00;13.70;1.00
573;DHT22;271;51.114;13.780;2023-10-31T12:08:48;13.70;1.00
573;DHT22;271;51.114;13.780;2023-10-31T12:11:44;13.60;1.00
573;DHT22;271;51.114;13.780;2023-10-31T12:14:32;13.70;1.00
573;DHT22;271;51.114;13.780;2023-10-31T12:17:20;13.70;1.00
573;DHT22;271;51.114;13.780;2023-10-31T12:20:10;13.70;1.00
573;DHT22;271;51.114;13.780;2023-10-31T12:23:03;13.70;1.00
573;DHT22;271;51.114;13.780;2023-10-31T12:25:53;13.80;1.00
573;DHT22;271;51.114;13.780;2023-10-31T12:28:41;13.80;1.00
573;DHT22;271;51.114;13.780;2023-10-31T12:31:34;13.80;1.00
573;DHT22;271;51.114;13.780;2023-10-31T13:08:17;13.50;1.00
573;DHT22;271;51.114;13.780;2023-10-31T13:11:05;13.60;1.00
573;DHT22;271;51.114;13.780;2023-10-31T13:13:55;13.60;1.00
573;DHT22;271;51.114;13.780;2023-10-31T13:16:43;13.60;1.00
573;DHT22;271;51.114;13.780;2023-10-31T13:19:52;13.50;1.00
573;DHT22;271;51.114;13.780;2023-10-31T13:31:43;13.30;1.00
573;DHT22;271;51.114;13.780;2023-10-31T13:34:37;13.40;1.00
573;DHT22;271;51.114;13.780;2023-10-31T13:37:25;13.40;1.00
573;DHT22;271;51.114;13.780;2023-10-31T13:40:13;13.40;1.00
573;DHT22;271;51.114;13.780;2023-10-31T13:43:08;13.40;1.00
573;DHT22;271;51.114;13.780;2023-10-31T13:45:56;13.30;1.00
573;DHT22;271;51.114;13.780;2023-10-31T16:03:22;12.60;1.00
573;DHT22;271;51.114;13.780;2023-10-31T16:06:20;12.50;1.00
573;DHT22;271;51.114;13.780;2023-10-31T16:09:09;12.50;1.00
573;DHT22;271;51.114;13.780;2023-10-31T16:11:57;12.50;1.00
573;DHT22;271;51.114;13.780;2023-10-31T16:14:45;12.60;1.00
573;DHT22;271;51.114;13.780;2023-10-31T16:17:33;12.60;1.00
573;DHT22;271;51.114;13.780;2023-10-31T16:20:22;12.60;1.00
573;DHT22;271;51.114;13.780;2023-10-31T16:23:10;12.60;1.00
573;DHT22;271;51.114;13.780;2023-10-31T16:25:58;12.50;1.00
573;DHT22;271;51.114;13.780;2023-10-31T16:28:45;12.60;1.00
573;DHT22;271;51.114;13.780;2023-10-31T16:31:33;12.50;1.00
573;DHT22;271;51.114;13.780;2023-10-31T16:34:23;12.60;1.00
573;DHT22;271;51.114;13.780;2023-10-31T16:37:12;12.60;1.00
573;DHT22;271;51.114;13.780;2023-10-31T16:40:01;12.60;1.00
573;DHT22;271;51.114;13.780;2023-10-31T16:42:49;12.60;1.00
573;DHT22;271;51.114;13.780;2023-10-31T16:45:37;12.60;1.00
573;DHT22;271;51.114;13.780;2023-10-31T16:48:24;12.60;1.00
573;DHT22;271;51.114;13.780;2023-10-31T16:51:16;12.60;1.00
573;DHT22;271;51.114;13.780;2023-10-31T16:54:05;12.60;1.00
573;DHT22;271;51.114;13.780;2023-10-31T16:56:53;12.60;1.00
573;DHT22;271;51.114;13.780;2023-10-31T16:59:41;12.60;1.00
573;DHT22;271;51.114;13.780;2023-10-31T17:02:28;12.50;1.00
573;DHT22;271;51.114;13.780;2023-10-31T17:05:16;12.50;1.00
573;DHT22;271;51.114;13.780;2023-10-31T17:08:04;12.50;1.00
573;DHT22;271;51.114;13.780;2023-10-31T17:10:53;12.60;1.00
573;DHT22;271;51.114;13.780;2023-10-31T17:13:41;12.50;1.00
573;DHT22;271;51.114;13.780;2023-10-31T17:16:29;12.50;1.00
573;DHT22;271;51.114;13.780;2023-10-31T17:19:16;12.50;1.00
573;DHT22;271;51.114;13.780;2023-10-31T17:22:04;12.50;1.00
573;DHT22;271;51.114;13.780;2023-10-31T17:24:52;12.50;1.00
573;DHT22;271;51.114;13.780;2023-10-31T17:27:41;12.50;1.00
573;DHT22;271;51.114;13.780;2023-10-31T17:30:29;12.40;1.00
573;DHT22;271;51.114;13.780;2023-10-31T17:33:16;12.50;1.00
573;DHT22;271;51.114;13.780;2023-10-31T17:36:06;12.40;1.00
573;DHT22;271;51.114;13.780;2023-10-31T17:38:54;12.40;1.00
573;DHT22;271;51.114;13.780;2023-10-31T17:41:42;12.30;1.00
573;DHT22;271;51.114;13.780;2023-10-31T17:44:31;12.30;1.00
573;DHT22;271;51.114;13.780;2023-10-31T17:47:20;12.30;1.00
573;DHT22;271;51.114;13.780;2023-10-31T17:50:09;12.30;1.00
573;DHT22;271;51.114;13.780;2023-10-31T17:52:56;12.30;1.00
573;DHT22;271;51.114;13.780;2023-10-31T17:55:44;12.30;1.00
573;DHT22;271;51.114;13.780;2023-10-31T17:58:32;12.20;1.00
573;DHT22;271;51.114;13.780;2023-10-31T18:01:21;12.20;1.00
573;DHT22;271;51.114;13.780;2023-10-31T18:04:09;12.30;1.00
573;DHT22;271;51.114;13.780;2023-10-31T18:06:57;12.30;1.00
573;DHT22;271;51.114;13.780;2023-10-31T18:09:44;12.20;1.00
573;DHT22;271;51.114;13.780;2023-10-31T18:12:32;12.30;1.00
573;DHT22;271;51.114;13.780;2023-10-31T18:15:20;12.20;1.00
573;DHT22;271;51.114;13.780;2023-10-31T18:18:09;12.20;1.00
573;DHT22;271;51.114;13.780;2023-10-31T18:20:57;12.20;1.00
573;DHT22;271;51.114;13.780;2023-10-31T18:23:47;12.20;1.00
573;DHT22;271;51.114;13.780;2023-10-31T18:26:38;12.20;1.00
573;DHT22;271;51.114;13.780;2023-10-31T18:29:26;12.20;1.00
573;DHT22;271;51.114;13.780;2023-10-31T18:32:14;12.10;1.00
573;DHT22;271;51.114;13.780;2023-10-31T18:35:05;12.10;1.00
573;DHT22;271;51.114;13.780;2023-10-31T18:37:53;12.10;1.00
573;DHT22;271;51.114;13.780;2023-10-31T18:40:41;12.20;1.00
573;DHT22;271;51.114;13.780;2023-10-31T18:43:29;12.20;1.00
573;DHT22;271;51.114;13.780;2023-10-31T18:46:17;12.20;1.00
573;DHT22;271;51.114;13.780;2023-10-31T18:49:05;12.20;1.00
573;DHT22;271;51.114;13.780;2023-10-31T18:51:54;12.20;1.00
573;DHT22;271;51.114;13.780;2023-10-31T18:54:41;12.20;1.00
573;DHT22;271;51.114;13.780;2023-10-31T18:57:29;12.20;1.00
573;DHT22;271;51.114;13.780;2023-10-31T19:00:17;12.10;1.00
573;DHT22;271;51.114;13.780;2023-10-31T19:03:05;12.20;1.00
573;DHT22;271;51.114;13.780;2023-10-31T19:05:52;12.10;1.00
573;DHT22;271;51.114;13.780;2023-10-31T19:08:42;12.10;1.00
573;DHT22;271;51.114;13.780;2023-10-31T19:11:29;12.10;1.00
573;DHT22;271;51.114;13.780;2023-10-31T19:14:17;12.10;1.00
573;DHT22;271;51.114;13.780;2023-10-31T19:17:05;12.10;1.00
573;DHT22;271;51.114;13.780;2023-10-31T19:19:54;12.10;1.00
573;DHT22;271;51.114;13.780;2023-10-31T19:22:42;12.10;1.00
573;DHT22;271;51.114;13.780;2023-10-31T19:25:32;12.10;1.00
573;DHT22;271;51.114;13.780;2023-10-31T19:28:23;12.10;1.00
573;DHT22;271;51.114;13.780;2023-10-31T19:31:23;12.10;1.00
573;DHT22;271;51.114;13.780;2023-10-31T19:34:20;12.10;1.00
573;DHT22;271;51.114;13.780;2023-10-31T19:37:08;12.10;1.00
573;DHT22;271;51.114;13.780;2023-10-31T19:39:59;12.20;1.00
573;DHT22;271;51.114;13.780;2023-10-31T19:46:41;12.20;1.00
573;DHT22;271;51.114;13.780;2023-10-31T19:49:33;12.10;1.00
573;DHT22;271;51.114;13.780;2023-10-31T19:52:21;12.10;1.00
573;DHT22;271;51.114;13.780;2023-10-31T19:55:09;12.10;1.00
573;DHT22;271;51.114;13.780;2023-10-31T19:57:56;12.10;1.00
573;DHT22;271;51.114;13.780;2023-10-31T20:00:44;12.10;1.00
573;DHT22;271;51.114;13.780;2023-10-31T20:03:36;12.10;1.00
573;DHT22;271;51.114;13.780;2023-10-31T20:06:24;12.10;1.00
573;DHT22;271;51.114;13.780;2023-10-31T20:09:12;12.20;1.00
573;DHT22;271;51.114;13.780;2023-10-31T20:12:00;12.10;1.00
573;DHT22;271;51.114;13.780;2023-10-31T20:14:49;12.10;1.00
573;DHT22;271;51.114;13.780;2023-10-31T20:17:37;12.10;1.00
573;DHT22;271;51.114;13.780;2023-10-31T20:20:41;12.10;1.00
573;DHT22;271;51.114;13.780;2023-10-31T20:23:29;12.10;1.00
573;DHT22;271;51.114;13.780;2023-10-31T20:26:17;12.10;1.00
573;DHT22;271;51.114;13.780;2023-10-31T20:32:36;12.10;1.00
573;DHT22;271;51.114;13.780;2023-10-31T20:38:55;12.00;1.00
573;DHT22;271;51.114;13.780;2023-10-31T20:41:55;12.00;1.00
573;DHT22;271;51.114;13.780;2023-10-31T20:44:47;12.00;1.00
573;DHT22;271;51.114;13.780;2023-10-31T20:47:38;11.90;1.00
573;DHT22;271;51.114;13.780;2023-10-31T20:50:46;11.90;1.00
573;DHT22;271;51.114;13.780;2023-10-31T20:53:37;11.90;1.00
573;DHT22;271;51.114;13.780;2023-10-31T20:56:27;11.80;1.00
573;DHT22;271;51.114;13.780;2023-10-31T20:59:14;11.90;1.00
573;DHT22;271;51.114;13.780;2023-10-31T21:02:02;11.80;1.00
573;DHT22;271;51.114;13.780;2023-10-31T21:04:50;11.90;1.00
573;DHT22;271;51.114;13.780;2023-10-31T21:07:38;11.90;1.00
573;DHT22;271;51.114;13.780;2023-10-31T21:10:27;11.90;1.00
573;DHT22;271;51.114;13.780;2023-10-31T21:13:16;11.90;1.00
573;DHT22;271;51.114;13.780;2023-10-31T21:16:04;11.90;1.00
573;DHT22;271;51.114;13.780;2023-10-31T21:18:52;11.90;1.00
573;DHT22;271;51.114;13.780;2023-10-31T21:21:40;11.90;1.00
573;DHT22;271;51.114;13.780;2023-10-31T21:24:28;11.90;1.00
573;DHT22;271;51.114;13.780;2023-10-31T21:27:16;12.00;1.00
573;DHT22;271;51.114;13.780;2023-10-31T21:30:08;11.90;1.00
573;DHT22;271;51.114;13.780;2023-10-31T21:32:56;12.00;1.00
573;DHT22;271;51.114;13.780;2023-10-31T21:35:44;11.90;1.00
573;DHT22;271;51.114;13.780;2023-10-31T21:38:32;11.90;1.00
573;DHT22;271;51.114;13.780;2023-10-31T21:41:20;12.00;1.00
573;DHT22;271;51.114;13.780;2023-10-31T21:44:07;11.90;1.00
573;DHT22;271;51.114;13.780;2023-10-31T21:46:57;11.90;1.00
573;DHT22;271;51.114;13.780;2023-10-31T21:49:45;11.90;1.00
573;DHT22;271;51.114;13.780;2023-10-31T21:52:33;12.00;1.00
573;DHT22;271;51.114;13.780;2023-10-31T21:55:21;12.00;1.00
573;DHT22;271;51.114;13.780;2023-10-31T21:58:12;12.00;1.00
573;DHT22;271;51.114;13.780;2023-10-31T22:01:02;12.00;1.00
573;DHT22;271;51.114;13.780;2023-10-31T22:03:52;12.00;1.00
573;DHT22;271;51.114;13.780;2023-10-31T22:06:40;12.00;1.00
573;DHT22;271;51.114;13.780;2023-10-31T22:09:28;12.00;1.00
573;DHT22;271;51.114;13.780;2023-10-31T22:12:16;12.00;1.00
573;DHT22;271;51.114;13.780;2023-10-31T22:15:05;12.00;1.00
573;DHT22;271;51.114;13.780;2023-10-31T22:17:53;12.00;1.00
573;DHT22;271;51.114;13.780;2023-10-31T22:20:42;11.90;1.00
573;DHT22;271;51.114;13.780;2023-10-31T22:23:33;11.90;1.00
573;DHT22;271;51.114;13.780;2023-10-31T22:26:21;11.90;1.00
573;DHT22;271;51.114;13.780;2023-10-31T22:29:09;11.80;1.00
573;DHT22;271;51.114;13.780;2023-10-31T22:31:58;11.80;1.00
573;DHT22;271;51.114;13.780;2023-10-31T22:34:46;11.80;1.00
573;DHT22;271;51.114;13.780;2023-10-31T22:37:35;11.70;1.00
573;DHT22;271;51.114;13.780;2023-10-31T22:40:22;11.70;1.00
573;DHT22;271;51.114;13.780;2023-10-31T22:43:10;11.70;1.00
573;DHT22;271;51.114;13.780;2023-10-31T22:45:58;11.60;1.00
573;DHT22;271;51.114;13.780;2023-10-31T22:48:46;11.60;1.00
573;DHT22;271;51.114;13.780;2023-10-31T22:51:34;11.50;1.00
573;DHT22;271;51.114;13.780;2023-10-31T22:54:23;11.50;1.00
573;DHT22;271;51.114;13.780;2023-10-31T22:57:11;11.40;1.00
573;DHT22;271;51.114;13.780;2023-10-31T22:59:59;11.40;1.00
573;DHT22;271;51.114;13.780;2023-10-31T23:06:29;11.30;1.00
573;DHT22;271;51.114;13.780;2023-10-31T23:09:18;11.20;1.00
573;DHT22;271;51.114;13.780;2023-10-31T23:12:08;11.20;1.00
573;DHT22;271;51.114;13.780;2023-10-31T23:15:07;11.20;1.00
573;DHT22;271;51.114;13.780;2023-10-31T23:17:57;11.20;1.00
573;DHT22;271;51.114;13.780;2023-10-31T23:20:45;11.20;1.00
573;DHT22;271;51.114;13.780;2023-10-31T23:23:33;11.20;1.00
573;DHT22;271;51.114;13.780;2023-10-31T23:26:21;11.20;1.00
573;DHT22;271;51.114;13.780;2023-10-31T23:29:10;11.10;1.00
573;DHT22;271;51.114;13.780;2023-10-31T23:31:58;11.20;1.00
573;DHT22;271;51.114;13.780;2023-10-31T23:34:46;11.10;1.00
573;DHT22;271;51.114;13.780;2023-10-31T23:37:34;11.10;1.00
573;DHT22;271;51.114;13.780;2023-10-31T23:40:21;11.00;1.00
573;DHT22;271;51.114;13.780;2023-10-31T23:43:30;11.00;1.00
573;DHT22;271;51.114;13.780;2023-10-31T23:46:37;11.00;1.00
573;DHT22;271;51.114;13.780;2023-10-31T23:49:25;11.00;1.00
573;DHT22;271;51.114;13.780;2023-10-31T23:52:12;11.00;1.00
573;DHT22;271;51.114;13.780;2023-10-31T23:55:00;11.00;1.00
573;DHT22;271;51.114;13.780;2023-10-31T23:57:48;11.00;1.00
